Terminal Aerodrome Forecast
Issued by NWS

Home | Current Version | Previous Version | Text Only | Print | Product List | Glossary On
Versions: 1 2 3 4 5 6 7 8 9 10 11 12 13 14 15 16 17 18 19 20 21
000
FTUS43 KILX 070534
TAFDEC
TAF
KDEC 070534Z 0706/0806 28008KT P6SM FEW130 BKN200
     FM071000 27008KT P6SM BKN100
     FM080400 30010KT P6SM SCT100 OVC200=

USA.gov is the U.S. government's official web portal to all federal, state and local government web resources and services.